createdAt,value
2023-08-11T00:00:39.199Z,101029.94
2023-08-11T00:03:41.014Z,101019.06
2023-08-11T00:06:42.643Z,101022.56
2023-08-11T00:09:44.389Z,101023.88
2023-08-11T00:12:46.077Z,101026.84
2023-08-11T00:15:47.729Z,101021.38
2023-08-11T00:18:49.439Z,101021.38
2023-08-11T00:21:51.079Z,101024.72
2023-08-11T00:24:52.696Z,101021.50
2023-08-11T00:27:54.401Z,101020.16
2023-08-11T00:30:56.071Z,101025.81
2023-08-11T00:33:57.720Z,101020.34
2023-08-11T00:36:59.337Z,101025.16
2023-08-11T00:40:00.955Z,101025.28
2023-08-11T00:43:02.572Z,101027.81
2023-08-11T00:46:04.242Z,101025.28
2023-08-11T00:49:05.975Z,101021.94
2023-08-11T00:52:07.588Z,101019.13
2023-08-11T00:55:09.229Z,101006.19
2023-08-11T00:58:10.827Z,101008.88
2023-08-11T01:01:12.425Z,101008.19
2023-08-11T01:04:14.161Z,100997.50
2023-08-11T01:07:15.833Z,100999.50
2023-08-11T01:10:17.458Z,101001.34
2023-08-11T01:13:19.123Z,100991.44
2023-08-11T01:16:20.797Z,100990.13
2023-08-11T01:19:22.467Z,100989.47
2023-08-11T01:22:24.064Z,100983.81
2023-08-11T01:25:25.708Z,100981.94
2023-08-11T01:28:27.366Z,100987.03
2023-08-11T01:31:29.117Z,100990.72
2023-08-11T01:34:30.799Z,100995.03
2023-08-11T01:37:32.413Z,101001.38
2023-08-11T01:40:34.032Z,100992.69
2023-08-11T01:43:35.652Z,101005.03
2023-08-11T01:46:37.273Z,100999.00
2023-08-11T01:49:39.011Z,100996.81
2023-08-11T01:52:40.695Z,100994.97
2023-08-11T01:55:42.314Z,100994.69
2023-08-11T01:58:43.972Z,101001.69
2023-08-11T02:01:45.607Z,100993.00
2023-08-11T02:04:47.318Z,100987.94
2023-08-11T02:07:48.882Z,100984.31
2023-08-11T02:10:50.545Z,100982.81
2023-08-11T02:13:52.171Z,100976.44
2023-08-11T02:16:53.759Z,100976.44
2023-08-11T02:19:55.427Z,100986.09
2023-08-11T02:22:57.070Z,100975.56
2023-08-11T02:25:58.739Z,100975.72
2023-08-11T02:29:00.356Z,100971.34
2023-08-11T02:32:02.044Z,100974.69
2023-08-11T02:35:03.716Z,100974.69
2023-08-11T02:38:05.355Z,100980.22
2023-08-11T02:41:07.064Z,100976.19
2023-08-11T02:44:08.682Z,100969.00
2023-08-11T02:47:10.306Z,100969.16
2023-08-11T02:50:11.961Z,100972.66
2023-08-11T02:53:13.635Z,100964.13
2023-08-11T02:56:15.339Z,100964.97
2023-08-11T02:59:16.965Z,100960.47
2023-08-11T03:02:18.581Z,100966.97
2023-08-11T03:05:20.233Z,100982.97
2023-08-11T03:08:21.865Z,100981.66
2023-08-11T03:11:23.466Z,100976.09
2023-08-11T03:14:25.119Z,100977.47
2023-08-11T03:17:26.796Z,100971.44
2023-08-11T03:20:28.518Z,100968.78
2023-08-11T03:23:30.119Z,100973.66
2023-08-11T03:26:31.809Z,100967.50
2023-08-11T03:29:33.504Z,100966.09
2023-08-11T03:32:35.256Z,100968.78
2023-08-11T03:35:36.916Z,100967.94
2023-08-11T03:38:38.597Z,100968.97
2023-08-11T03:41:40.208Z,100965.59
2023-08-11T03:44:41.822Z,100969.09
2023-08-11T03:47:43.450Z,100968.97
2023-08-11T03:50:45.175Z,100970.31
2023-08-11T03:53:46.859Z,100970.47
2023-08-11T03:56:48.450Z,100969.94
2023-08-11T03:59:50.050Z,100971.38
2023-08-11T04:02:51.918Z,100976.41
2023-08-11T04:05:53.661Z,100969.41
2023-08-11T04:08:55.326Z,100966.72
2023-08-11T04:11:56.966Z,100975.06
2023-08-11T04:14:58.573Z,100976.50
2023-08-11T04:18:00.232Z,100975.50
2023-08-11T04:21:01.980Z,100982.38
2023-08-11T04:24:03.648Z,100991.34
2023-08-11T04:27:05.282Z,100984.16
2023-08-11T04:30:06.961Z,100984.34
2023-08-11T04:33:08.767Z,100988.00
2023-08-11T04:36:10.400Z,100989.81
2023-08-11T04:39:12.043Z,100992.16
2023-08-11T04:42:13.852Z,100991.34
2023-08-11T04:45:15.507Z,100993.31
2023-08-11T04:48:17.214Z,100989.34
2023-08-11T04:51:18.836Z,100992.84
2023-08-11T04:54:20.466Z,100996.88
2023-08-11T04:57:22.171Z,100985.63
2023-08-11T05:00:23.864Z,100993.47
2023-08-11T05:03:25.803Z,100988.13
2023-08-11T05:06:27.462Z,100990.03
2023-08-11T05:09:29.234Z,100996.28
2023-08-11T05:12:30.892Z,100997.13
2023-08-11T05:15:32.578Z,100995.28
2023-08-11T05:18:42.900Z,100997.50
2023-08-11T05:21:45.859Z,101011.03
2023-08-11T05:24:47.565Z,101005.84
2023-08-11T05:27:49.199Z,101008.22
2023-08-11T05:30:50.819Z,101006.25
2023-08-11T05:33:52.545Z,100999.44
2023-08-11T05:36:54.216Z,101008.66
2023-08-11T05:39:55.798Z,101004.78
2023-08-11T05:42:57.471Z,101002.34
2023-08-11T05:45:59.167Z,101004.38
2023-08-11T05:49:00.836Z,101002.72
2023-08-11T05:52:02.508Z,101003.31
2023-08-11T05:55:04.135Z,101002.03
2023-08-11T05:58:05.732Z,101001.69
2023-08-11T06:01:07.394Z,101008.91
2023-08-11T06:04:09.112Z,101004.47
2023-08-11T06:07:11.075Z,101007.31
2023-08-11T06:10:12.791Z,101016.38
2023-08-11T06:13:14.432Z,101014.22
2023-08-11T06:16:16.028Z,101015.41
2023-08-11T06:19:17.646Z,101018.41
2023-08-11T06:22:19.222Z,101008.09
2023-08-11T06:25:20.851Z,101014.34
2023-08-11T06:28:22.462Z,101010.50
2023-08-11T06:31:24.165Z,101013.00
2023-08-11T06:34:25.868Z,101012.50
2023-08-11T06:37:27.496Z,101002.50
2023-08-11T06:40:29.117Z,101006.84
2023-08-11T06:43:30.776Z,101005.66
2023-08-11T06:46:32.410Z,101000.47
2023-08-11T06:49:34.050Z,101010.19
2023-08-11T06:52:35.785Z,101005.66
2023-08-11T06:55:37.385Z,101006.34
2023-08-11T06:58:38.997Z,101007.16
2023-08-11T07:01:40.658Z,101003.81
2023-08-11T07:04:42.284Z,101006.19
2023-08-11T07:07:43.916Z,101008.88
2023-08-11T07:10:45.518Z,101012.56
2023-08-11T07:13:47.128Z,101007.38
2023-08-11T07:16:48.791Z,101003.88
2023-08-11T07:19:50.427Z,101001.03
2023-08-11T07:22:52.010Z,100999.03
2023-08-11T07:25:53.616Z,100996.19
2023-08-11T07:28:55.234Z,100994.16
2023-08-11T07:31:56.864Z,100996.16
2023-08-11T07:34:58.466Z,100997.00
2023-08-11T07:38:00.207Z,100993.00
2023-08-11T07:41:01.909Z,100996.34
2023-08-11T07:44:03.493Z,100994.66
2023-08-11T07:47:05.070Z,100991.97
2023-08-11T07:50:06.721Z,101002.53
2023-08-11T07:53:08.332Z,100997.66
2023-08-11T07:56:09.965Z,100990.81
2023-08-11T07:59:11.603Z,100992.16
2023-08-11T08:02:13.301Z,100990.47
2023-08-11T08:05:15.041Z,100977.75
2023-08-11T08:08:16.677Z,100981.09
2023-08-11T08:11:18.287Z,100989.31
2023-08-11T08:14:19.958Z,100983.78
2023-08-11T08:17:21.617Z,100973.28
2023-08-11T08:20:23.243Z,100974.13
2023-08-11T08:23:24.931Z,100973.28
2023-08-11T08:26:26.569Z,100973.94
2023-08-11T08:29:28.209Z,100966.22
2023-08-11T08:32:29.886Z,100968.25
2023-08-11T08:35:31.646Z,100961.91
2023-08-11T08:38:33.344Z,100954.19
2023-08-11T08:41:34.978Z,100956.56
2023-08-11T08:44:36.794Z,100952.03
2023-08-11T08:47:38.526Z,100949.84
2023-08-11T08:50:40.229Z,100947.34
2023-08-11T08:53:41.897Z,100943.00
2023-08-11T08:56:43.638Z,100945.66
2023-08-11T08:59:45.300Z,100937.25
2023-08-11T09:02:46.993Z,100939.63
2023-08-11T09:05:48.747Z,100945.97
2023-08-11T09:08:50.365Z,100936.63
2023-08-11T09:11:52.036Z,100937.28
2023-08-11T09:14:53.679Z,100930.09
2023-08-11T09:17:55.355Z,100926.25
2023-08-11T09:20:57.103Z,100919.72
2023-08-11T09:23:58.742Z,100921.19
2023-08-11T09:27:00.356Z,100916.88
2023-08-11T09:30:01.983Z,100919.38
2023-08-11T09:33:03.631Z,100920.50
2023-08-11T09:36:05.287Z,100920.72
2023-08-11T09:39:06.926Z,100917.38
2023-08-11T09:42:10.150Z,100919.84
2023-08-11T09:45:12.045Z,100916.19
2023-08-11T09:48:13.731Z,100913.34
2023-08-11T09:51:15.391Z,100908.81
2023-08-11T09:54:17.036Z,100909.31
2023-08-11T09:57:18.681Z,100910.13
2023-08-11T10:00:20.298Z,100909.47
2023-08-11T10:03:22.007Z,100905.44
2023-08-11T10:06:29.735Z,100904.44
2023-08-11T10:09:31.379Z,100906.09
2023-08-11T10:12:33.493Z,100904.50
2023-08-11T10:15:38.714Z,100904.22
2023-08-11T10:18:45.517Z,100902.09
2023-08-11T10:21:47.370Z,100901.25
2023-08-11T10:24:49.106Z,100892.06
2023-08-11T10:27:50.799Z,100893.50
2023-08-11T10:30:52.432Z,100894.16
2023-08-11T10:33:54.140Z,100887.81
2023-08-11T10:36:55.861Z,100886.66
2023-08-11T10:39:59.251Z,100888.34
2023-08-11T10:43:02.516Z,100883.97
2023-08-11T10:46:04.196Z,100884.59
2023-08-11T10:49:08.805Z,100876.13
2023-08-11T10:52:10.614Z,100873.19
2023-08-11T10:55:12.444Z,100868.53
2023-08-11T10:58:14.148Z,100866.50
2023-08-11T11:01:15.974Z,100869.84
2023-08-11T11:04:22.512Z,100862.50
2023-08-11T11:07:24.366Z,100869.06
2023-08-11T11:10:35.728Z,100862.38
2023-08-11T11:13:45.292Z,100853.59
2023-08-11T11:16:46.976Z,100861.03
2023-08-11T11:19:48.679Z,100858.19
2023-08-11T11:22:50.277Z,100857.97
2023-08-11T11:25:51.991Z,100851.25
2023-08-11T11:28:53.670Z,100852.00
2023-08-11T11:31:55.375Z,100850.81
2023-08-11T11:34:57.021Z,100859.00
2023-08-11T11:37:58.763Z,100860.22
2023-08-11T11:41:00.401Z,100861.41
2023-08-11T11:44:02.225Z,100865.31
2023-08-11T11:47:03.902Z,100855.09
2023-08-11T11:50:05.553Z,100856.53
2023-08-11T11:53:07.198Z,100857.75
2023-08-11T11:56:08.929Z,100852.78
2023-08-11T11:59:10.517Z,100849.44
2023-08-11T12:02:12.439Z,100854.34
2023-08-11T12:05:14.294Z,100844.50
2023-08-11T12:08:15.946Z,100856.59
2023-08-11T12:11:17.600Z,100851.41
2023-08-11T12:14:19.315Z,100839.63
2023-08-11T12:17:20.907Z,100844.19
2023-08-11T12:20:22.512Z,100834.44
2023-08-11T12:23:24.217Z,100835.09
2023-08-11T12:26:25.876Z,100858.06
2023-08-11T12:29:27.492Z,100839.56
2023-08-11T12:32:29.221Z,100838.66
2023-08-11T12:35:30.852Z,100837.88
2023-08-11T12:38:32.446Z,100839.25
2023-08-11T12:41:34.056Z,100826.28
2023-08-11T12:44:35.691Z,100817.22
2023-08-11T12:47:37.331Z,100833.66
2023-08-11T12:50:39.019Z,100824.13
2023-08-11T12:53:40.678Z,100828.06
2023-08-11T12:56:42.378Z,100822.47
2023-08-11T12:59:44.091Z,100830.22
2023-08-11T13:02:45.748Z,100822.94
2023-08-11T13:05:47.401Z,100822.91
2023-08-11T13:08:49.030Z,100826.75
2023-08-11T13:11:50.626Z,100824.63
2023-08-11T13:14:52.302Z,100822.94
2023-08-11T13:17:54.019Z,100814.88
2023-08-11T13:20:55.725Z,100817.81
2023-08-11T13:23:57.408Z,100815.63
2023-08-11T13:26:59.048Z,100815.47
2023-08-11T13:30:00.828Z,100810.81
2023-08-11T13:33:02.492Z,100813.84
2023-08-11T13:36:04.180Z,100794.09
2023-08-11T13:39:05.812Z,100799.13
2023-08-11T13:42:07.756Z,100798.09
2023-08-11T13:45:09.547Z,100799.13
2023-08-11T13:48:11.261Z,100789.97
2023-08-11T13:51:13.016Z,100791.28
2023-08-11T13:54:14.814Z,100793.06
2023-08-11T13:57:16.461Z,100780.69
2023-08-11T14:00:18.101Z,100783.81
2023-08-11T14:03:19.731Z,100771.38
2023-08-11T14:06:21.423Z,100772.44
2023-08-11T14:09:23.097Z,100773.41
2023-08-11T14:12:24.805Z,100765.53
2023-08-11T14:15:26.520Z,100764.25
2023-08-11T14:18:28.146Z,100771.78
2023-08-11T14:21:29.835Z,100771.38
2023-08-11T14:24:31.489Z,100770.25
2023-08-11T14:27:33.207Z,100766.50
2023-08-11T14:30:34.825Z,100776.09
2023-08-11T14:33:36.604Z,100779.06
2023-08-11T14:36:38.440Z,100767.41
2023-08-11T14:39:40.108Z,100767.41
2023-08-11T14:42:41.744Z,100757.69
2023-08-11T14:45:43.360Z,100756.03
2023-08-11T14:48:44.977Z,100750.97
2023-08-11T14:51:46.649Z,100757.16
2023-08-11T14:54:48.241Z,100753.00
2023-08-11T14:57:50.057Z,100755.13
2023-08-11T15:00:51.701Z,100747.56
2023-08-11T15:03:53.431Z,100744.34
2023-08-11T15:06:57.901Z,100744.25
2023-08-11T15:09:59.514Z,100728.16
2023-08-11T15:13:01.228Z,100726.47
2023-08-11T15:16:02.926Z,100737.03
2023-08-11T15:19:04.575Z,100719.94
2023-08-11T15:22:06.195Z,100722.16
2023-08-11T15:25:07.812Z,100727.69
2023-08-11T15:28:09.414Z,100727.03
2023-08-11T15:31:11.104Z,100721.50
2023-08-11T15:34:12.902Z,100722.31
2023-08-11T15:37:14.701Z,100715.28
2023-08-11T15:40:16.366Z,100726.84
2023-08-11T15:43:17.974Z,100717.97
2023-08-11T15:46:19.705Z,100714.28
2023-08-11T15:49:21.452Z,100708.91
2023-08-11T15:52:23.078Z,100695.69
2023-08-11T15:55:35.680Z,100685.81
2023-08-11T15:58:37.970Z,100684.97
2023-08-11T16:01:39.626Z,100684.81
2023-08-11T16:04:41.261Z,100685.81
2023-08-11T16:07:42.862Z,100678.63
2023-08-11T16:10:44.474Z,100673.25
2023-08-11T16:13:46.059Z,100674.09
2023-08-11T16:16:47.681Z,100681.09
2023-08-11T16:19:49.305Z,100681.09
2023-08-11T16:22:50.947Z,100679.44
2023-08-11T16:25:52.528Z,100690.00
2023-08-11T16:28:54.161Z,100682.78
2023-08-11T16:31:55.806Z,100673.91
2023-08-11T16:34:57.458Z,100680.09
2023-08-11T16:37:59.154Z,100674.72
2023-08-11T16:41:00.710Z,100672.06
2023-08-11T16:44:02.418Z,100673.91
2023-08-11T16:47:04.043Z,100674.09
2023-08-11T16:50:05.690Z,100672.06
2023-08-11T16:53:07.290Z,100678.88
2023-08-11T16:56:08.859Z,100688.78
2023-08-11T16:59:10.465Z,100671.72
2023-08-11T17:02:12.362Z,100679.53
2023-08-11T17:05:14.150Z,100678.06
2023-08-11T17:08:15.768Z,100678.06
2023-08-11T17:11:17.497Z,100674.56
2023-08-11T17:14:19.098Z,100676.22
2023-08-11T17:17:20.767Z,100682.44
2023-08-11T17:20:22.509Z,100668.34
2023-08-11T17:23:24.111Z,100680.09
2023-08-11T17:26:25.765Z,100675.56
2023-08-11T17:29:27.414Z,100677.25
2023-08-11T17:32:29.081Z,100674.56
2023-08-11T17:35:30.667Z,100671.88
2023-08-11T17:38:32.290Z,100670.69
2023-08-11T17:41:33.971Z,100680.75
2023-08-11T17:44:35.588Z,100674.56
2023-08-11T17:47:37.234Z,100683.44
2023-08-11T17:50:38.876Z,100688.59
2023-08-11T17:53:40.503Z,100684.41
2023-08-11T17:56:42.157Z,100685.09
2023-08-11T17:59:43.744Z,100682.44
2023-08-11T18:02:45.511Z,100684.91
2023-08-11T18:05:47.318Z,100698.28
2023-08-11T18:08:48.914Z,100694.78
2023-08-11T18:11:50.487Z,100694.78
2023-08-11T18:14:52.088Z,100702.66
2023-08-11T18:17:54.807Z,100702.66
2023-08-11T18:20:59.726Z,100705.34
2023-08-11T18:24:03.838Z,100708.03
2023-08-11T18:27:05.490Z,100707.19
2023-08-11T18:30:07.136Z,100713.38
2023-08-11T18:33:12.038Z,100711.53
2023-08-11T18:36:13.783Z,100709.66
2023-08-11T18:39:15.387Z,100704.31
2023-08-11T18:42:16.961Z,100709.66
2023-08-11T18:45:18.670Z,100707.84
2023-08-11T18:48:20.269Z,100712.19
2023-08-11T18:51:21.898Z,100715.03
2023-08-11T18:54:23.536Z,100715.03
2023-08-11T18:57:25.127Z,100714.84
2023-08-11T19:00:26.806Z,100721.91
2023-08-11T19:03:28.570Z,100721.03
2023-08-11T19:06:32.261Z,100720.22
2023-08-11T19:09:33.899Z,100728.06
2023-08-11T19:12:35.675Z,100729.94
2023-08-11T19:15:37.304Z,100731.41
2023-08-11T19:18:38.981Z,100733.09
2023-08-11T19:21:40.653Z,100741.97
2023-08-11T19:24:42.283Z,100736.22
2023-08-11T19:27:43.866Z,100733.53
2023-08-11T19:30:45.493Z,100733.00
2023-08-11T19:33:47.106Z,100737.34
2023-08-11T19:36:48.698Z,100733.84
2023-08-11T19:39:50.330Z,100733.00
2023-08-11T19:42:51.896Z,100734.19
2023-08-11T19:45:54.439Z,100726.34
2023-08-11T19:48:56.118Z,100726.78
2023-08-11T19:51:57.719Z,100720.59
2023-08-11T19:54:59.321Z,100727.81
2023-08-11T19:58:00.942Z,100720.75
2023-08-11T20:01:04.909Z,100717.44
2023-08-11T20:04:06.634Z,100711.03
2023-08-11T20:07:08.602Z,100714.06
2023-08-11T20:10:10.466Z,100711.03
2023-08-11T20:13:12.049Z,100713.72
2023-08-11T20:16:13.756Z,100717.44
2023-08-11T20:19:15.359Z,100725.09
2023-08-11T20:22:16.984Z,100712.50
2023-08-11T20:25:18.653Z,100712.34
2023-08-11T20:28:20.254Z,100712.50
2023-08-11T20:31:21.900Z,100712.34
2023-08-11T20:34:23.606Z,100708.81
2023-08-11T20:37:25.292Z,100709.66
2023-08-11T20:40:26.994Z,100711.34
2023-08-11T20:43:29.229Z,100713.16
2023-08-11T20:46:30.820Z,100710.47
2023-08-11T20:49:32.426Z,100707.44
2023-08-11T20:52:34.108Z,100709.94
2023-08-11T20:55:35.684Z,100714.47
2023-08-11T20:58:37.303Z,100705.59
2023-08-11T21:01:38.942Z,100711.16
2023-08-11T21:04:40.665Z,100709.47
2023-08-11T21:07:42.290Z,100716.69
2023-08-11T21:10:43.921Z,100710.69
2023-08-11T21:13:48.591Z,100713.38
2023-08-11T21:16:50.276Z,100715.84
2023-08-11T21:19:51.908Z,100712.34
2023-08-11T21:22:56.541Z,100711.50
2023-08-11T21:25:58.245Z,100711.69
2023-08-11T21:28:59.850Z,100707.34
2023-08-11T21:32:01.457Z,100709.81
2023-08-11T21:35:03.184Z,100701.59
2023-08-11T21:38:04.789Z,100701.78
2023-08-11T21:41:06.426Z,100709.00
2023-08-11T21:44:07.996Z,100707.16
2023-08-11T21:47:09.887Z,100713.38
2023-08-11T21:50:11.633Z,100718.72
2023-08-11T21:53:23.025Z,100717.06
2023-08-11T21:56:25.579Z,100711.69
2023-08-11T21:59:27.254Z,100706.31
2023-08-11T22:02:28.870Z,100711.84
2023-08-11T22:05:30.471Z,100719.91
2023-08-11T22:08:32.061Z,100712.91
2023-08-11T22:11:37.110Z,100700.50
2023-08-11T22:14:39.190Z,100703.16
2023-08-11T22:17:40.854Z,100695.31
2023-08-11T22:20:42.572Z,100697.97
2023-08-11T22:23:44.258Z,100700.00
2023-08-11T22:26:45.856Z,100701.66
2023-08-11T22:29:47.501Z,100705.34
2023-08-11T22:32:49.186Z,100707.19
2023-08-11T22:35:50.793Z,100696.66
2023-08-11T22:38:52.386Z,100695.84
2023-08-11T22:41:54.028Z,100701.03
2023-08-11T22:44:55.717Z,100702.03
2023-08-11T22:47:57.367Z,100701.38
2023-08-11T22:50:58.949Z,100689.81
2023-08-11T22:54:00.566Z,100694.34
2023-08-11T22:57:02.168Z,100692.50
2023-08-11T23:00:03.844Z,100686.50
2023-08-11T23:03:05.546Z,100689.81
2023-08-11T23:06:07.212Z,100682.44
2023-08-11T23:09:08.772Z,100681.44
2023-08-11T23:12:10.406Z,100676.41
2023-08-11T23:15:12.058Z,100685.13
2023-08-11T23:18:13.715Z,100676.59
2023-08-11T23:21:15.284Z,100669.59
2023-08-11T23:24:16.915Z,100673.09
2023-08-11T23:27:18.555Z,100672.91
2023-08-11T23:30:20.167Z,100673.09
2023-08-11T23:33:21.798Z,100672.25
2023-08-11T23:36:23.371Z,100669.75
2023-08-11T23:39:25.019Z,100670.59
2023-08-11T23:42:26.641Z,100665.22
2023-08-11T23:45:28.295Z,100661.72
2023-08-11T23:48:29.990Z,100658.22
2023-08-11T23:51:31.562Z,100660.72
2023-08-11T23:54:33.197Z,100656.38
2023-08-11T23:57:34.854Z,100658.03
